Pagrindinis puslapis
METAR-TAF:

METAR-TAF

Oro uostai :

Reschen Pass, Italija

platuma: 46-50N, ilguma: 010-30E, Aukštis: 1800 m

Dabartinis oras

Ataskaita buvo paskelbta 53 minutes, ne 12:55 UTC
Vėjas 4 kt iš Pietvakarių
Temperatūra 9°C
Drėgmė 43%
Slėgis 1032 hPa
Matomumas 10 km arba daugiau
nėra debesų žemiau 1500 m ir nėra kamuolinių lietaus debesų

METAR: LIVE 251255Z 22004KT CAVOK 09/M03 Q1032 RMK SKC VIS MIN 9999

Laikas: 14:48 (13:48 UTC)


TAF: trūkstamas

Orai ataskaitas ir orų prognozės (METAR, TAF).

turimą stotys yra geltonos ir raudonos taškus žemėlapyje.

Perkelti pele per norėdami pamatyti stoties vardą.

Tada spustelėkite, norėdami matyti oro stebėjimo ir prognozės.

Norėdami pakeisti žemėlapį: spustelėkite ant žalios mygtukų su juodo kryžiaus žemyn,; žalią mygtuką su brūkšneliu, jei norite nutolinti; arba žalių rodyklių gretimoms žemėlapius.


METAR-TAF: